createdAt,value
2019-04-21T00:00:00.332Z,3.83
2019-04-21T00:02:36.049Z,3.50
2019-04-21T00:05:24.726Z,3.70
2019-04-21T00:07:50.726Z,3.67
2019-04-21T00:10:27.861Z,3.47
2019-04-21T00:12:53.444Z,4.00
2019-04-21T00:15:19.361Z,4.10
2019-04-21T00:17:43.562Z,3.93
2019-04-21T00:20:28.395Z,4.23
2019-04-21T00:22:58.862Z,4.07
2019-04-21T00:25:33.885Z,3.93
2019-04-21T00:28:17.015Z,4.07
2019-04-21T00:30:47.052Z,4.27
2019-04-21T00:33:04.582Z,4.17
2019-04-21T00:35:26.456Z,3.67
2019-04-21T00:38:17.021Z,4.33
2019-04-21T00:40:52.136Z,4.20
2019-04-21T00:43:17.708Z,4.33
2019-04-21T00:45:41.832Z,4.30
2019-04-21T00:48:23.328Z,4.50
2019-04-21T00:51:10.652Z,4.50
2019-04-21T00:53:54.592Z,4.33
2019-04-21T00:56:15.312Z,4.40
2019-04-21T00:58:48.121Z,4.27
2019-04-21T01:01:15.186Z,4.70
2019-04-21T01:03:52.990Z,4.60
2019-04-21T01:06:22.406Z,4.30
2019-04-21T01:08:48.919Z,4.70
2019-04-21T01:11:26.304Z,4.47
2019-04-21T01:13:58.009Z,4.80
2019-04-21T01:16:27.279Z,5.00
2019-04-21T01:18:59.114Z,5.20
2019-04-21T01:21:13.972Z,4.60
2019-04-21T01:23:36.264Z,5.20
2019-04-21T01:26:18.239Z,4.70
2019-04-21T01:28:58.386Z,4.90
2019-04-21T01:31:22.725Z,5.60
2019-04-21T01:34:02.895Z,5.80
2019-04-21T01:36:24.182Z,5.40
2019-04-21T01:39:08.407Z,5.40
2019-04-21T01:44:00.754Z,5.40
2019-04-21T01:46:32.266Z,5.17
2019-04-21T01:49:02.847Z,5.60
2019-04-21T01:51:37.296Z,5.60
2019-04-21T01:54:19.432Z,6.07
2019-04-21T01:56:44.477Z,6.10
2019-04-21T01:59:07.397Z,5.63
2019-04-21T02:01:52.413Z,6.10
2019-04-21T02:04:24.506Z,6.53
2019-04-21T02:06:59.979Z,6.20
2019-04-21T02:09:18.911Z,6.10
2019-04-21T02:12:07.318Z,6.00
2019-04-21T02:14:31.814Z,6.23
2019-04-21T02:17:00.666Z,5.93
2019-04-21T02:19:26.181Z,6.37
2019-04-21T02:21:56.709Z,5.97
2019-04-21T02:27:08.558Z,5.40
2019-04-21T02:29:40.672Z,5.70
2019-04-21T02:32:14.754Z,5.30
2019-04-21T02:34:49.044Z,6.07
2019-04-21T02:39:56.736Z,5.97
2019-04-21T02:42:20.824Z,5.97
2019-04-21T02:44:56.340Z,5.70
2019-04-21T02:47:27.486Z,6.20
2019-04-21T02:50:01.952Z,6.40
2019-04-21T02:52:31.083Z,6.37
2019-04-21T02:55:02.295Z,6.50
2019-04-21T02:57:22.825Z,6.47
2019-04-21T03:00:06.525Z,6.30
2019-04-21T03:02:46.927Z,6.40
2019-04-21T03:05:28.311Z,6.20
2019-04-21T03:07:55.240Z,6.47
2019-04-21T03:10:29.925Z,6.63
2019-04-21T03:12:56.916Z,6.53
2019-04-21T03:15:29.549Z,7.60
2019-04-21T03:18:38.002Z,6.43
2019-04-21T03:20:35.803Z,6.60
2019-04-21T03:23:12.689Z,6.60
2019-04-21T03:28:04.960Z,7.27
2019-04-21T03:33:53.904Z,6.60
2019-04-21T03:38:16.597Z,7.27
2019-04-21T03:40:44.383Z,6.97
2019-04-21T03:43:16.730Z,6.90
2019-04-21T03:48:24.160Z,7.17
2019-04-21T03:50:39.501Z,7.00
2019-04-21T03:53:20.813Z,6.77
2019-04-21T04:01:00.271Z,6.97
2019-04-21T04:03:52.205Z,7.50
2019-04-21T04:09:11.174Z,7.70
2019-04-21T04:11:29.216Z,7.77
2019-04-21T04:13:55.731Z,7.60
2019-04-21T04:26:37.371Z,7.43
2019-04-21T04:29:03.943Z,6.40
2019-04-21T04:31:37.575Z,6.77
2019-04-21T04:34:04.768Z,7.50
2019-04-21T04:39:36.631Z,6.83
2019-04-21T04:44:39.388Z,6.97
2019-04-21T04:49:40.024Z,7.80
2019-04-21T04:54:42.769Z,7.30
2019-04-21T04:57:08.183Z,7.77
2019-04-21T05:02:10.978Z,6.80
2019-04-21T05:04:59.156Z,7.10
2019-04-21T05:07:09.708Z,7.17
2019-04-21T05:09:44.640Z,7.67
2019-04-21T05:12:07.248Z,7.17
2019-04-21T05:14:46.699Z,7.30
2019-04-21T05:17:14.107Z,6.47
2019-04-21T05:19:53.844Z,7.30
2019-04-21T05:22:17.169Z,7.70
2019-04-21T05:24:33.777Z,7.10
2019-04-21T05:27:02.672Z,6.80
2019-04-21T05:29:37.579Z,6.83
2019-04-21T05:32:22.936Z,7.30
2019-04-21T05:34:54.264Z,7.10
2019-04-21T05:37:25.643Z,7.00
2019-04-21T05:39:51.175Z,6.90
2019-04-21T05:42:17.042Z,7.23
2019-04-21T05:45:02.969Z,7.33
2019-04-21T05:47:35.343Z,6.53
2019-04-21T05:50:03.188Z,6.93
2019-04-21T05:52:35.298Z,7.70
2019-04-21T05:55:12.355Z,7.33
2019-04-21T05:57:38.084Z,7.60
2019-04-21T06:00:15.638Z,6.80
2019-04-21T06:02:56.044Z,6.20
2019-04-21T06:05:23.151Z,6.87
2019-04-21T06:07:48.962Z,7.37
2019-04-21T06:10:25.146Z,6.93
2019-04-21T06:12:57.718Z,6.77
2019-04-21T06:15:27.594Z,7.17
2019-04-21T06:17:59.308Z,7.17
2019-04-21T06:20:30.367Z,7.57
2019-04-21T06:22:56.826Z,6.87
2019-04-21T06:28:01.579Z,6.90
2019-04-21T06:30:33.652Z,7.27
2019-04-21T06:32:59.057Z,7.07
2019-04-21T06:36:11.316Z,7.50
2019-04-21T06:38:54.089Z,6.70
2019-04-21T06:41:12.922Z,6.90
2019-04-21T06:43:48.215Z,6.57
2019-04-21T06:46:20.041Z,7.30
2019-04-21T06:48:49.744Z,6.20
2019-04-21T06:51:24.073Z,6.63
2019-04-21T06:53:57.836Z,6.47
2019-04-21T06:56:27.095Z,6.77
2019-04-21T06:58:51.559Z,6.40
2019-04-21T07:01:25.254Z,7.00
2019-04-21T07:04:02.985Z,7.23
2019-04-21T07:06:24.145Z,7.50
2019-04-21T07:09:03.121Z,6.20
2019-04-21T07:11:28.732Z,6.27
2019-04-21T07:14:16.196Z,6.50
2019-04-21T07:16:36.865Z,6.67
2019-04-21T07:19:09.942Z,6.93
2019-04-21T07:21:33.816Z,6.93
2019-04-21T07:24:12.311Z,6.53
2019-04-21T07:26:32.731Z,7.17
2019-04-21T07:29:22.079Z,6.73
2019-04-21T07:31:42.063Z,6.83
2019-04-21T07:34:07.848Z,6.50
2019-04-21T07:36:47.784Z,6.93
2019-04-21T07:39:05.935Z,6.97
2019-04-21T07:41:35.054Z,6.50
2019-04-21T07:44:00.372Z,6.40
2019-04-21T07:46:28.750Z,6.10
2019-04-21T07:49:17.607Z,6.53
2019-04-21T07:51:50.632Z,6.53
2019-04-21T07:54:29.113Z,6.37
2019-04-21T07:56:34.977Z,6.20
2019-04-21T07:59:31.520Z,6.20
2019-04-21T08:01:55.146Z,6.20
2019-04-21T08:06:52.067Z,5.70
2019-04-21T08:09:25.612Z,6.03
2019-04-21T08:11:51.797Z,5.57
2019-04-21T08:14:28.341Z,5.70
2019-04-21T08:17:02.815Z,6.20
2019-04-21T08:19:32.593Z,6.08
2019-04-21T08:22:05.229Z,6.65
2019-04-21T08:24:34.723Z,5.87
2019-04-21T08:29:44.085Z,5.85
2019-04-21T08:32:09.410Z,6.37
2019-04-21T08:34:43.152Z,6.50
2019-04-21T08:37:12.619Z,6.10
2019-04-21T08:39:51.029Z,5.80
2019-04-21T08:42:10.394Z,5.83
2019-04-21T08:44:47.776Z,5.30
2019-04-21T08:47:15.391Z,5.50
2019-04-21T08:49:47.284Z,5.47
2019-04-21T08:52:29.483Z,4.65
2019-04-21T08:54:55.721Z,5.08
2019-04-21T08:57:41.673Z,4.80
2019-04-21T09:00:08.433Z,5.03
2019-04-21T09:05:04.578Z,5.37
2019-04-21T09:07:41.666Z,5.10
2019-04-21T09:10:11.020Z,5.45
2019-04-21T09:12:43.111Z,5.42
2019-04-21T09:15:17.431Z,4.72
2019-04-21T09:17:32.841Z,5.58
2019-04-21T09:20:20.960Z,5.05
2019-04-21T09:22:41.279Z,4.75
2019-04-21T09:25:19.360Z,5.60
2019-04-21T09:27:42.061Z,5.00
2019-04-21T09:30:03.420Z,5.10
2019-04-21T09:32:33.079Z,4.87
2019-04-21T09:35:03.428Z,5.10
2019-04-21T09:37:46.851Z,4.67
2019-04-21T09:40:06.772Z,4.75
2019-04-21T09:42:44.307Z,4.87
2019-04-21T09:45:09.975Z,5.20
2019-04-21T09:47:46.484Z,5.15
2019-04-21T09:50:11.507Z,5.25
2019-04-21T09:52:48.856Z,5.30
2019-04-21T09:55:18.953Z,5.45
2019-04-21T09:57:51.532Z,5.20
2019-04-21T10:00:21.128Z,5.12
2019-04-21T10:02:55.622Z,4.75
2019-04-21T10:05:19.168Z,5.50
2019-04-21T10:07:48.977Z,4.95
2019-04-21T10:10:19.214Z,5.40
2019-04-21T10:12:49.940Z,5.35
2019-04-21T10:15:21.956Z,5.10
2019-04-21T10:18:03.898Z,5.28
2019-04-21T10:20:33.477Z,5.03
2019-04-21T10:23:03.024Z,5.05
2019-04-21T10:25:32.639Z,5.42
2019-04-21T10:28:03.319Z,5.35
2019-04-21T10:30:33.108Z,5.10
2019-04-21T10:33:02.501Z,4.95
2019-04-21T10:35:32.974Z,4.72
2019-04-21T10:38:14.944Z,4.70
2019-04-21T10:40:35.599Z,4.10
2019-04-21T10:43:06.149Z,4.67
2019-04-21T10:45:36.956Z,4.67
2019-04-21T10:48:07.329Z,4.75
2019-04-21T10:50:37.101Z,5.00
2019-04-21T10:53:09.220Z,4.90
2019-04-21T10:55:54.282Z,5.08
2019-04-21T10:58:14.406Z,4.58
2019-04-21T11:00:46.208Z,4.42
2019-04-21T11:03:26.840Z,4.85
2019-04-21T11:05:58.909Z,4.55
2019-04-21T11:08:35.443Z,4.55
2019-04-21T11:10:59.918Z,5.10
2019-04-21T11:13:30.756Z,4.50
2019-04-21T11:16:01.370Z,5.03
2019-04-21T11:18:31.657Z,4.50
2019-04-21T11:21:01.139Z,4.95
2019-04-21T11:23:31.298Z,4.70
2019-04-21T11:26:02.161Z,4.50
2019-04-21T11:28:31.764Z,4.72
2019-04-21T11:31:02.581Z,4.40
2019-04-21T11:33:33.403Z,4.65
2019-04-21T11:36:03.593Z,4.42
2019-04-21T11:39:06.135Z,4.42
2019-04-21T11:41:23.723Z,4.20
2019-04-21T11:43:54.921Z,4.40
2019-04-21T11:46:24.573Z,4.45
2019-04-21T11:48:54.733Z,4.62
2019-04-21T11:51:24.878Z,4.25
2019-04-21T11:53:54.989Z,4.25
2019-04-21T11:56:25.070Z,4.37
2019-04-21T11:58:54.693Z,4.30
2019-04-21T12:01:25.500Z,4.67
2019-04-21T12:03:55.708Z,4.35
2019-04-21T12:06:32.330Z,4.10
2019-04-21T12:08:59.076Z,4.10
2019-04-21T12:11:27.448Z,4.35
2019-04-21T12:13:58.303Z,4.22
2019-04-21T12:16:28.794Z,4.25
2019-04-21T12:18:58.842Z,4.40
2019-04-21T12:21:34.998Z,4.12
2019-04-21T12:24:00.639Z,4.20
2019-04-21T12:26:31.688Z,4.28
2019-04-21T12:29:01.844Z,4.10
2019-04-21T12:31:49.532Z,4.33
2019-04-21T12:34:21.849Z,3.35
2019-04-21T12:36:52.722Z,3.10
2019-04-21T12:39:23.010Z,3.35
2019-04-21T12:41:52.585Z,3.70
2019-04-21T12:44:22.557Z,3.45
2019-04-21T12:46:52.162Z,3.30
2019-04-21T12:49:22.102Z,3.77
2019-04-21T12:51:51.665Z,3.00
2019-04-21T12:54:21.707Z,3.20
2019-04-21T12:56:51.778Z,3.13
2019-04-21T12:59:21.330Z,3.10
2019-04-21T13:01:50.879Z,3.13
2019-04-21T13:04:21.753Z,3.30
2019-04-21T13:06:51.784Z,2.80
2019-04-21T13:09:22.251Z,3.20
2019-04-21T13:11:52.975Z,3.43
2019-04-21T13:14:22.509Z,3.07
2019-04-21T13:16:51.905Z,3.27
2019-04-21T13:19:21.324Z,2.93
2019-04-21T13:21:51.948Z,2.83
2019-04-21T13:24:22.036Z,2.90
2019-04-21T13:26:57.600Z,3.20
2019-04-21T13:29:23.856Z,2.80
2019-04-21T13:31:54.296Z,2.90
2019-04-21T13:34:24.129Z,2.60
2019-04-21T13:36:53.975Z,3.37
2019-04-21T13:39:50.379Z,2.77
2019-04-21T13:42:11.094Z,2.50
2019-04-21T13:44:32.939Z,2.80
2019-04-21T13:47:02.807Z,2.80
2019-04-21T13:49:32.283Z,2.93
2019-04-21T13:52:02.664Z,2.43
2019-04-21T13:54:33.629Z,2.50
2019-04-21T13:57:04.921Z,2.53
2019-04-21T13:59:34.446Z,2.70
2019-04-21T14:02:04.777Z,2.90
2019-04-21T14:04:35.539Z,2.47
2019-04-21T14:07:06.039Z,2.60
2019-04-21T14:09:43.815Z,2.50
2019-04-21T14:12:09.736Z,2.40
2019-04-21T14:14:39.247Z,2.60
2019-04-21T14:17:09.009Z,2.80
2019-04-21T14:19:39.422Z,2.60
2019-04-21T14:22:11.707Z,2.80
2019-04-21T14:24:41.519Z,2.60
2019-04-21T14:27:12.154Z,2.40
2019-04-21T14:29:43.860Z,2.20
2019-04-21T14:32:13.960Z,2.67
2019-04-21T14:34:44.084Z,2.60
2019-04-21T14:37:14.895Z,2.67
2019-04-21T14:39:55.271Z,2.50
2019-04-21T14:42:16.001Z,3.17
2019-04-21T14:44:46.859Z,2.70
2019-04-21T14:47:25.125Z,2.50
2019-04-21T14:50:13.558Z,2.70
2019-04-21T14:52:44.326Z,2.20
2019-04-21T14:55:31.192Z,2.50
2019-04-21T14:58:01.204Z,2.70
2019-04-21T15:00:33.688Z,2.43
2019-04-21T15:03:05.644Z,2.60
2019-04-21T15:05:37.604Z,2.50
2019-04-21T15:08:07.055Z,2.57
2019-04-21T15:10:36.815Z,2.47
2019-04-21T15:13:07.662Z,2.27
2019-04-21T15:15:38.059Z,2.50
2019-04-21T15:18:08.502Z,2.70
2019-04-21T15:20:38.441Z,2.43
2019-04-21T15:23:08.374Z,2.50
2019-04-21T15:25:38.520Z,3.00
2019-04-21T15:28:08.047Z,2.77
2019-04-21T15:30:38.615Z,3.00
2019-04-21T15:33:08.553Z,2.70
2019-04-21T15:35:39.086Z,3.10
2019-04-21T15:38:09.743Z,3.13
2019-04-21T15:40:46.771Z,2.83
2019-04-21T15:43:10.691Z,3.10
2019-04-21T15:45:40.041Z,3.20
2019-04-21T15:48:09.902Z,2.93
2019-04-21T15:50:40.255Z,3.00
2019-04-21T15:53:11.937Z,3.03
2019-04-21T15:55:44.375Z,2.70
2019-04-21T15:58:18.920Z,2.80
2019-04-21T16:00:50.306Z,3.10
2019-04-21T16:03:24.791Z,2.73
2019-04-21T16:05:56.350Z,2.50
2019-04-21T16:08:27.138Z,2.40
2019-04-21T16:11:00.268Z,2.80
2019-04-21T16:13:27.766Z,2.40
2019-04-21T16:15:58.684Z,2.30
2019-04-21T16:18:28.275Z,2.40
2019-04-21T16:20:57.820Z,2.60
2019-04-21T16:23:28.575Z,2.40
2019-04-21T16:25:59.123Z,2.50
2019-04-21T16:28:31.193Z,2.20
2019-04-21T16:31:02.384Z,2.20
2019-04-21T16:33:33.345Z,2.30
2019-04-21T16:36:02.821Z,2.13
2019-04-21T16:38:33.449Z,3.50
2019-04-21T16:41:05.529Z,3.00
2019-04-21T16:43:35.412Z,2.70
2019-04-21T16:46:04.986Z,3.00
2019-04-21T16:48:35.710Z,4.10
2019-04-21T16:51:05.777Z,4.40
2019-04-21T16:53:37.761Z,4.70
2019-04-21T16:56:08.982Z,3.80
2019-04-21T16:58:40.944Z,3.20
2019-04-21T17:01:15.950Z,3.10
2019-04-21T17:03:50.531Z,3.27
2019-04-21T17:06:22.876Z,2.90
2019-04-21T17:08:52.740Z,3.30
2019-04-21T17:11:28.692Z,2.90
2019-04-21T17:13:54.222Z,3.50
2019-04-21T17:19:08.183Z,3.13
2019-04-21T17:21:26.153Z,3.47
2019-04-21T17:23:56.623Z,3.27
2019-04-21T17:26:27.008Z,2.97
2019-04-21T17:28:56.770Z,2.90
2019-04-21T17:31:26.766Z,2.77
2019-04-21T17:34:03.524Z,3.20
2019-04-21T17:36:27.550Z,2.87
2019-04-21T17:39:02.246Z,2.80
2019-04-21T17:41:40.943Z,2.80
2019-04-21T17:44:04.480Z,2.77
2019-04-21T17:46:45.592Z,2.90
2019-04-21T17:49:05.239Z,3.20
2019-04-21T17:51:48.046Z,2.83
2019-04-21T17:54:19.885Z,2.97
2019-04-21T17:57:04.565Z,3.10
2019-04-21T17:59:44.859Z,3.10
2019-04-21T18:02:04.066Z,2.70
2019-04-21T18:04:34.845Z,2.57
2019-04-21T18:07:15.218Z,2.80
2019-04-21T18:09:58.002Z,2.47
2019-04-21T18:12:18.026Z,2.30
2019-04-21T18:14:34.601Z,3.23
2019-04-21T18:17:04.587Z,3.13
2019-04-21T18:19:36.865Z,2.80
2019-04-21T18:22:09.019Z,2.73
2019-04-21T18:24:48.856Z,2.60
2019-04-21T18:27:11.653Z,2.70
2019-04-21T18:29:42.338Z,3.10
2019-04-21T18:32:12.604Z,2.57
2019-04-21T18:34:49.385Z,2.70
2019-04-21T18:37:34.996Z,3.17
2019-04-21T18:40:08.921Z,2.60
2019-04-21T18:42:55.077Z,2.67
2019-04-21T18:48:14.333Z,2.93
2019-04-21T18:51:00.290Z,2.97
2019-04-21T18:53:44.873Z,2.97
2019-04-21T18:56:05.283Z,3.17
2019-04-21T18:58:30.835Z,3.70
2019-04-21T19:01:07.333Z,3.40
2019-04-21T19:03:38.401Z,2.90
2019-04-21T19:06:10.836Z,3.20
2019-04-21T19:08:59.721Z,3.07
2019-04-21T19:11:24.043Z,2.97
2019-04-21T19:14:27.090Z,3.17
2019-04-21T19:16:47.766Z,2.80
2019-04-21T19:21:49.919Z,2.87
2019-04-21T19:24:29.446Z,2.70
2019-04-21T19:31:54.803Z,3.00
2019-04-21T19:34:16.224Z,2.87
2019-04-21T19:36:47.608Z,2.80
2019-04-21T19:39:16.381Z,2.87
2019-04-21T19:41:57.667Z,2.70
2019-04-21T19:44:26.272Z,2.70
2019-04-21T19:47:03.910Z,2.90
2019-04-21T19:49:39.941Z,3.03
2019-04-21T19:51:57.515Z,2.90
2019-04-21T19:54:25.240Z,3.10
2019-04-21T19:56:49.050Z,2.97
2019-04-21T19:59:31.841Z,3.13
2019-04-21T20:01:51.381Z,2.90
2019-04-21T20:04:31.795Z,3.20
2019-04-21T20:07:02.912Z,3.13
2019-04-21T20:09:40.622Z,3.00
2019-04-21T20:12:13.161Z,3.60
2019-04-21T20:14:55.313Z,2.77
2019-04-21T20:17:08.891Z,2.67
2019-04-21T20:19:27.594Z,3.03
2019-04-21T20:21:57.071Z,3.00
2019-04-21T20:24:29.874Z,2.80
2019-04-21T20:27:05.864Z,2.97
2019-04-21T20:29:49.834Z,3.13
2019-04-21T20:32:24.649Z,2.77
2019-04-21T20:34:56.553Z,3.00
2019-04-21T20:37:21.365Z,3.20
2019-04-21T20:39:46.312Z,2.97
2019-04-21T20:42:20.887Z,3.20
2019-04-21T20:45:13.142Z,3.33
2019-04-21T20:47:20.107Z,3.40
2019-04-21T20:49:57.153Z,3.33
2019-04-21T20:52:41.734Z,3.60
2019-04-21T20:54:53.879Z,3.50
2019-04-21T20:57:30.173Z,3.40
2019-04-21T21:00:07.075Z,3.37
2019-04-21T21:02:37.020Z,3.23
2019-04-21T21:05:22.086Z,2.90
2019-04-21T21:08:03.586Z,2.77
2019-04-21T21:10:27.963Z,3.40
2019-04-21T21:13:09.905Z,3.10
2019-04-21T21:15:30.284Z,2.83
2019-04-21T21:18:06.262Z,3.40
2019-04-21T21:20:36.851Z,3.20
2019-04-21T21:23:02.943Z,3.33
2019-04-21T21:25:40.065Z,3.00
2019-04-21T21:28:01.278Z,3.20
2019-04-21T21:30:34.813Z,3.20
2019-04-21T21:33:12.633Z,2.77
2019-04-21T21:35:37.196Z,3.13
2019-04-21T21:38:13.201Z,3.57
2019-04-21T21:40:42.088Z,3.20
2019-04-21T21:43:01.553Z,3.47
2019-04-21T21:45:38.928Z,3.20
2019-04-21T21:48:18.756Z,3.33
2019-04-21T21:50:46.030Z,3.10
2019-04-21T21:53:11.561Z,3.30
2019-04-21T21:55:35.835Z,3.03
2019-04-21T21:58:06.449Z,3.10
2019-04-21T22:00:41.990Z,2.93
2019-04-21T22:03:17.561Z,2.93
2019-04-21T22:05:47.546Z,3.20
2019-04-21T22:08:14.371Z,2.80
2019-04-21T22:10:45.311Z,3.30
2019-04-21T22:13:20.018Z,2.87
2019-04-21T22:15:49.385Z,2.80
2019-04-21T22:18:37.841Z,3.10
2019-04-21T22:21:03.277Z,3.00
2019-04-21T22:23:30.517Z,3.10
2019-04-21T22:25:51.453Z,3.03
2019-04-21T22:28:22.101Z,2.90
2019-04-21T22:30:53.676Z,3.00
2019-04-21T22:33:23.405Z,3.10
2019-04-21T22:35:59.219Z,2.97
2019-04-21T22:38:38.101Z,3.10
2019-04-21T22:41:04.416Z,2.93
2019-04-21T22:43:32.942Z,2.80
2019-04-21T22:45:57.429Z,2.90
2019-04-21T22:48:28.902Z,2.83
2019-04-21T22:50:58.304Z,2.90
2019-04-21T22:53:34.681Z,3.10
2019-04-21T22:56:10.188Z,3.03
2019-04-21T22:58:35.675Z,2.90
2019-04-21T23:01:03.794Z,2.77
2019-04-21T23:03:33.879Z,2.90
2019-04-21T23:06:17.446Z,2.93
2019-04-21T23:08:45.345Z,2.90
2019-04-21T23:11:14.677Z,2.90
2019-04-21T23:13:51.364Z,2.90
2019-04-21T23:16:21.495Z,2.80
2019-04-21T23:19:09.634Z,2.80
2019-04-21T23:21:30.489Z,2.90
2019-04-21T23:24:13.477Z,3.10
2019-04-21T23:26:37.913Z,2.97
2019-04-21T23:29:13.960Z,3.10
2019-04-21T23:31:43.294Z,3.13
2019-04-21T23:33:54.789Z,3.17
2019-04-21T23:36:27.921Z,3.30
2019-04-21T23:38:57.129Z,3.20
2019-04-21T23:41:33.581Z,3.03
2019-04-21T23:44:05.913Z,2.70
2019-04-21T23:46:34.425Z,2.60
2019-04-21T23:49:16.066Z,2.73
2019-04-21T23:51:42.941Z,2.80
2019-04-21T23:54:02.150Z,3.07
2019-04-21T23:56:35.825Z,2.93
2019-04-21T23:59:06.355Z,3.13
